createdAt,value
2023-02-22T00:02:14.038Z,7.50
2023-02-22T00:04:42.694Z,7.50
2023-02-22T00:07:11.622Z,7.50
2023-02-22T00:09:40.146Z,7.40
2023-02-22T00:12:10.381Z,7.50
2023-02-22T00:14:40.244Z,7.50
2023-02-22T00:17:08.797Z,7.50
2023-02-22T00:19:37.538Z,7.40
2023-02-22T00:22:06.218Z,7.40
2023-02-22T00:24:36.156Z,7.40
2023-02-22T00:27:04.838Z,7.40
2023-02-22T00:29:35.449Z,7.40
2023-02-22T00:32:04.164Z,7.40
2023-02-22T00:34:32.750Z,7.40
2023-02-22T00:37:04.189Z,7.40
2023-02-22T00:39:32.847Z,7.40
2023-02-22T00:42:01.601Z,7.50
2023-02-22T00:44:31.350Z,7.40
2023-02-22T00:47:01.427Z,7.40
2023-02-22T00:49:30.070Z,7.50
2023-02-22T00:51:59.825Z,7.40
2023-02-22T00:54:28.892Z,7.40
2023-02-22T00:56:58.159Z,7.40
2023-02-22T00:59:28.394Z,7.40
2023-02-22T01:01:58.599Z,7.40
2023-02-22T01:04:29.801Z,7.30
2023-02-22T01:07:00.546Z,7.30
2023-02-22T01:09:29.564Z,7.30
2023-02-22T01:11:58.349Z,7.30
2023-02-22T01:14:28.201Z,7.30
2023-02-22T01:16:57.659Z,7.30
2023-02-22T01:19:27.801Z,7.30
2023-02-22T01:21:56.937Z,7.30
2023-02-22T01:24:25.763Z,7.20
2023-02-22T01:26:56.640Z,7.20
2023-02-22T01:29:25.092Z,7.20
2023-02-22T01:31:55.551Z,7.20
2023-02-22T01:34:25.594Z,7.10
2023-02-22T01:36:56.542Z,7.10
2023-02-22T01:39:25.069Z,7.20
2023-02-22T01:41:54.650Z,7.10
2023-02-22T01:44:29.113Z,7.10
2023-02-22T01:47:02.011Z,7.10
2023-02-22T01:49:34.553Z,7.10
2023-02-22T01:52:09.543Z,7.10
2023-02-22T01:54:42.349Z,7.00
2023-02-22T01:57:18.954Z,7.00
2023-02-22T01:59:50.746Z,7.10
2023-02-22T02:02:21.625Z,7.00
2023-02-22T02:04:50.574Z,7.00
2023-02-22T02:07:23.410Z,7.00
2023-02-22T02:10:01.483Z,6.90
2023-02-22T02:12:33.629Z,7.00
2023-02-22T02:15:22.419Z,6.90
2023-02-22T02:17:53.656Z,6.90
2023-02-22T02:20:28.458Z,6.90
2023-02-22T02:23:06.261Z,6.90
2023-02-22T02:26:18.072Z,6.90
2023-02-22T02:29:12.394Z,6.90
2023-02-22T02:32:05.588Z,6.90
2023-02-22T02:34:41.952Z,6.70
2023-02-22T02:37:17.290Z,6.90
2023-02-22T02:39:52.975Z,6.60
2023-02-22T02:42:26.431Z,6.60
2023-02-22T02:45:02.576Z,6.50
2023-02-22T02:47:37.641Z,6.50
2023-02-22T02:50:10.183Z,6.40
2023-02-22T02:52:42.058Z,6.40
2023-02-22T02:55:12.264Z,6.40
2023-02-22T02:57:43.049Z,6.30
2023-02-22T03:00:23.291Z,6.30
2023-02-22T03:03:06.628Z,6.20
2023-02-22T03:05:52.545Z,6.20
2023-02-22T03:08:29.379Z,6.20
2023-02-22T03:11:06.718Z,6.20
2023-02-22T03:13:40.346Z,6.10
2023-02-22T03:16:19.209Z,6.10
2023-02-22T03:18:56.357Z,6.10
2023-02-22T03:21:31.942Z,6.10
2023-02-22T03:24:07.931Z,6.10
2023-02-22T03:26:41.116Z,6.10
2023-02-22T03:29:16.054Z,6.10
2023-02-22T03:31:52.193Z,6.10
2023-02-22T03:34:29.478Z,6.20
2023-02-22T03:37:03.800Z,6.10
2023-02-22T03:39:33.589Z,6.00
2023-02-22T03:42:07.273Z,6.00
2023-02-22T03:44:40.232Z,6.00
2023-02-22T03:47:13.035Z,5.90
2023-02-22T03:49:47.348Z,5.90
2023-02-22T03:52:17.342Z,5.90
2023-02-22T03:54:45.905Z,5.90
2023-02-22T03:57:21.972Z,5.90
2023-02-22T03:59:55.273Z,5.80
2023-02-22T04:02:23.777Z,5.80
2023-02-22T04:04:54.368Z,5.80
2023-02-22T04:07:23.198Z,5.80
2023-02-22T04:09:51.973Z,5.80
2023-02-22T04:12:20.496Z,5.80
2023-02-22T04:14:57.490Z,5.90
2023-02-22T04:17:26.033Z,5.90
2023-02-22T04:19:55.930Z,5.90
2023-02-22T04:22:26.629Z,6.00
2023-02-22T04:24:55.164Z,5.80
2023-02-22T04:27:23.836Z,5.80
2023-02-22T04:29:52.511Z,5.80
2023-02-22T04:32:21.400Z,5.80
2023-02-22T04:34:50.130Z,5.70
2023-02-22T04:37:20.075Z,5.60
2023-02-22T04:39:48.579Z,5.70
2023-02-22T04:42:17.313Z,5.60
2023-02-22T04:44:45.967Z,5.60
2023-02-22T04:47:14.823Z,5.60
2023-02-22T04:49:43.334Z,5.60
2023-02-22T04:52:12.025Z,5.60
2023-02-22T04:54:42.677Z,5.60
2023-02-22T04:57:11.262Z,5.60
2023-02-22T04:59:40.666Z,5.70
2023-02-22T05:02:12.886Z,5.60
2023-02-22T05:04:41.460Z,5.70
2023-02-22T05:07:10.015Z,5.70
2023-02-22T05:09:38.727Z,5.70
2023-02-22T05:12:09.062Z,5.70
2023-02-22T05:14:37.540Z,5.70
2023-02-22T05:17:06.162Z,5.70
2023-02-22T05:19:34.693Z,5.70
2023-02-22T05:22:03.673Z,5.80
2023-02-22T05:24:32.267Z,5.70
2023-02-22T05:27:00.825Z,5.70
2023-02-22T05:29:30.712Z,5.70
2023-02-22T05:31:59.243Z,5.70
2023-02-22T05:34:27.961Z,5.70
2023-02-22T05:36:56.437Z,5.70
2023-02-22T05:39:24.961Z,5.70
2023-02-22T05:41:53.452Z,5.70
2023-02-22T05:44:21.981Z,5.60
2023-02-22T05:46:51.931Z,5.70
2023-02-22T05:49:20.570Z,5.60
2023-02-22T05:51:49.262Z,5.70
2023-02-22T05:54:17.870Z,5.70
2023-02-22T05:56:46.407Z,5.60
2023-02-22T05:59:14.934Z,5.60
2023-02-22T06:01:43.636Z,5.60
2023-02-22T06:04:13.531Z,5.60
2023-02-22T06:06:41.993Z,5.60
2023-02-22T06:09:10.486Z,5.60
2023-02-22T06:11:38.921Z,5.70
2023-02-22T06:14:08.187Z,5.70
2023-02-22T06:16:36.773Z,5.70
2023-02-22T06:19:05.445Z,5.70
2023-02-22T06:21:35.276Z,5.60
2023-02-22T06:24:04.180Z,5.60
2023-02-22T06:26:32.729Z,5.70
2023-02-22T06:29:02.046Z,5.60
2023-02-22T06:31:31.723Z,5.60
2023-02-22T06:34:00.206Z,5.60
2023-02-22T06:36:28.710Z,5.60
2023-02-22T06:38:58.961Z,5.60
2023-02-22T06:41:27.487Z,5.60
2023-02-22T06:43:56.026Z,5.60
2023-02-22T06:46:24.476Z,5.60
2023-02-22T06:48:53.050Z,5.60
2023-02-22T06:51:22.039Z,5.70
2023-02-22T06:53:50.540Z,5.60
2023-02-22T06:56:20.345Z,5.60
2023-02-22T06:58:49.396Z,5.70
2023-02-22T07:01:18.474Z,5.60
2023-02-22T07:03:47.139Z,5.60
2023-02-22T07:06:15.859Z,5.60
2023-02-22T07:08:44.372Z,5.60
2023-02-22T07:11:13.139Z,5.60
2023-02-22T07:13:43.070Z,5.60
2023-02-22T07:16:11.654Z,5.70
2023-02-22T07:18:40.120Z,5.60
2023-02-22T07:21:08.690Z,5.60
2023-02-22T07:23:37.648Z,5.70
2023-02-22T07:26:06.502Z,5.70
2023-02-22T07:28:35.040Z,5.80
2023-02-22T07:31:05.060Z,5.70
2023-02-22T07:33:33.510Z,5.70
2023-02-22T07:36:01.996Z,5.80
2023-02-22T07:38:30.557Z,5.80
2023-02-22T07:40:59.405Z,5.90
2023-02-22T07:43:29.266Z,5.90
2023-02-22T07:46:02.776Z,5.90
2023-02-22T07:48:33.215Z,5.90
2023-02-22T07:51:01.757Z,5.90
2023-02-22T07:53:33.375Z,6.00
2023-02-22T07:56:05.061Z,5.90
2023-02-22T07:58:35.243Z,6.00
2023-02-22T08:01:04.017Z,6.10
2023-02-22T08:03:36.762Z,6.00
2023-02-22T08:06:07.004Z,6.10
2023-02-22T08:08:36.355Z,6.10
2023-02-22T08:11:05.729Z,6.10
2023-02-22T08:13:34.366Z,6.10
2023-02-22T08:16:03.519Z,6.20
2023-02-22T08:18:33.448Z,6.10
2023-02-22T08:21:02.003Z,6.20
2023-02-22T08:23:31.619Z,6.20
2023-02-22T08:26:06.287Z,6.30
2023-02-22T08:28:35.174Z,6.30
2023-02-22T08:31:04.066Z,6.40
2023-02-22T08:33:35.119Z,6.40
2023-02-22T08:36:03.665Z,6.40
2023-02-22T08:38:34.010Z,6.50
2023-02-22T08:41:02.503Z,6.50
2023-02-22T08:43:30.963Z,6.50
2023-02-22T08:45:59.573Z,6.60
2023-02-22T08:48:28.117Z,6.60
2023-02-22T08:50:58.087Z,6.60
2023-02-22T08:53:26.549Z,6.70
2023-02-22T08:55:55.211Z,6.80
2023-02-22T08:58:23.808Z,6.80
2023-02-22T09:00:52.296Z,6.90
2023-02-22T09:03:21.004Z,6.90
2023-02-22T09:05:49.762Z,7.00
2023-02-22T09:08:19.884Z,7.00
2023-02-22T09:10:48.719Z,7.10
2023-02-22T09:13:17.318Z,7.10
2023-02-22T09:15:46.070Z,7.20
2023-02-22T09:18:18.008Z,7.30
2023-02-22T09:20:46.577Z,7.30
2023-02-22T09:23:15.398Z,7.40
2023-02-22T09:25:45.350Z,7.40
2023-02-22T09:28:14.177Z,7.50
2023-02-22T09:30:43.763Z,7.50
2023-02-22T09:33:14.652Z,7.60
2023-02-22T09:35:46.487Z,7.60
2023-02-22T09:38:18.159Z,7.70
2023-02-22T09:40:51.153Z,7.70
2023-02-22T09:43:32.325Z,7.80
2023-02-22T09:46:19.748Z,7.80
2023-02-22T09:49:03.398Z,7.90
2023-02-22T09:51:38.403Z,8.00
2023-02-22T09:54:17.644Z,8.10
2023-02-22T09:56:51.314Z,8.20
2023-02-22T09:59:26.946Z,8.30
2023-02-22T10:02:01.825Z,8.40
2023-02-22T10:04:42.486Z,8.50
2023-02-22T10:07:19.460Z,8.60
2023-02-22T10:09:50.826Z,8.70
2023-02-22T10:12:30.731Z,8.80
2023-02-22T10:15:31.278Z,8.90
2023-02-22T10:18:14.345Z,9.00
2023-02-22T10:20:53.204Z,9.10
2023-02-22T10:23:29.832Z,9.20
2023-02-22T10:26:14.809Z,9.20
2023-02-22T10:28:55.204Z,9.30
2023-02-22T10:31:28.128Z,9.40
2023-02-22T10:34:00.980Z,9.50
2023-02-22T10:36:29.884Z,9.60
2023-02-22T10:39:01.204Z,9.70
2023-02-22T10:41:31.976Z,9.80
2023-02-22T10:44:03.165Z,10.00
2023-02-22T10:46:34.180Z,9.90
2023-02-22T10:49:07.361Z,9.90
2023-02-22T10:51:36.519Z,10.00
2023-02-22T10:54:24.049Z,10.10
2023-02-22T10:56:55.473Z,10.10
2023-02-22T10:59:30.795Z,10.10
2023-02-22T11:01:59.360Z,10.20
2023-02-22T11:04:46.431Z,10.30
2023-02-22T11:07:25.134Z,10.40
2023-02-22T11:09:55.675Z,10.50
2023-02-22T11:12:30.339Z,10.70
2023-02-22T11:15:28.035Z,10.80
2023-02-22T11:18:01.328Z,10.90
2023-02-22T11:20:34.788Z,10.80
2023-02-22T11:23:08.116Z,10.80
2023-02-22T11:25:39.517Z,10.70
2023-02-22T11:28:11.110Z,10.70
2023-02-22T11:30:43.830Z,10.70
2023-02-22T11:33:23.404Z,10.70
2023-02-22T11:35:53.661Z,10.60
2023-02-22T11:38:24.078Z,10.50
2023-02-22T11:41:18.854Z,10.50
2023-02-22T11:43:51.094Z,10.50
2023-02-22T11:46:23.419Z,10.60
2023-02-22T11:49:04.559Z,10.60
2023-02-22T11:51:46.745Z,10.70
2023-02-22T11:54:28.996Z,10.80
2023-02-22T11:57:07.200Z,10.90
2023-02-22T11:59:40.873Z,11.00
2023-02-22T12:02:31.781Z,11.00
2023-02-22T12:05:20.957Z,11.00
2023-02-22T12:08:13.799Z,10.90
2023-02-22T12:10:57.930Z,10.80
2023-02-22T12:13:45.299Z,10.70
2023-02-22T12:16:22.364Z,10.60
2023-02-22T12:19:11.256Z,10.50
2023-02-22T12:21:45.112Z,10.50
2023-02-22T12:24:18.516Z,10.50
2023-02-22T12:26:51.526Z,10.50
2023-02-22T12:29:28.558Z,10.50
2023-02-22T12:32:01.700Z,10.50
2023-02-22T12:34:37.482Z,10.50
2023-02-22T12:37:19.147Z,10.70
2023-02-22T12:40:00.584Z,10.70
2023-02-22T12:42:34.482Z,10.80
2023-02-22T12:45:10.376Z,10.90
2023-02-22T12:47:46.835Z,11.00
2023-02-22T12:50:22.372Z,11.10
2023-02-22T12:52:58.774Z,11.20
2023-02-22T12:55:33.448Z,11.30
2023-02-22T12:58:08.995Z,11.30
2023-02-22T13:00:44.451Z,11.30
2023-02-22T13:03:29.899Z,11.40
2023-02-22T13:06:07.023Z,11.30
2023-02-22T13:08:42.723Z,11.30
2023-02-22T13:11:18.201Z,11.30
2023-02-22T13:13:55.263Z,11.30
2023-02-22T13:16:34.377Z,11.30
2023-02-22T13:19:10.163Z,11.20
2023-02-22T13:21:47.905Z,11.20
2023-02-22T13:24:25.869Z,11.20
2023-02-22T13:27:00.309Z,11.20
2023-02-22T13:29:34.707Z,11.20
2023-02-22T13:32:15.470Z,11.20
2023-02-22T13:35:02.126Z,11.30
2023-02-22T13:37:50.905Z,11.30
2023-02-22T13:40:36.583Z,11.30
2023-02-22T13:43:20.094Z,11.40
2023-02-22T13:46:02.750Z,11.50
2023-02-22T13:48:53.985Z,11.50
2023-02-22T13:51:40.491Z,11.50
2023-02-22T13:54:16.179Z,11.40
2023-02-22T13:56:47.672Z,11.40
2023-02-22T13:59:25.917Z,11.30
2023-02-22T14:01:54.981Z,11.30
2023-02-22T14:04:40.765Z,11.30
2023-02-22T14:07:47.912Z,11.20
2023-02-22T14:10:39.792Z,11.20
2023-02-22T14:13:09.633Z,11.10
2023-02-22T14:15:58.509Z,11.10
2023-02-22T14:18:28.212Z,11.10
2023-02-22T14:21:07.550Z,11.10
2023-02-22T14:23:40.206Z,11.10
2023-02-22T14:26:15.030Z,11.10
2023-02-22T14:28:53.233Z,11.00
2023-02-22T14:31:35.562Z,11.00
2023-02-22T14:34:15.781Z,11.00
2023-02-22T14:36:50.817Z,11.10
2023-02-22T14:39:25.838Z,11.10
2023-02-22T14:42:01.407Z,11.20
2023-02-22T14:44:35.861Z,11.30
2023-02-22T14:47:08.346Z,11.30
2023-02-22T14:49:42.442Z,11.40
2023-02-22T14:52:20.842Z,11.50
2023-02-22T14:55:04.370Z,11.50
2023-02-22T14:57:45.836Z,11.60
2023-02-22T15:00:30.892Z,11.60
2023-02-22T15:03:01.544Z,11.60
2023-02-22T15:05:38.413Z,11.60
2023-02-22T15:08:09.042Z,11.50
2023-02-22T15:10:43.768Z,11.50
2023-02-22T15:13:19.692Z,11.40
2023-02-22T15:15:55.330Z,11.50
2023-02-22T15:18:29.375Z,11.30
2023-02-22T15:20:59.499Z,11.30
2023-02-22T15:23:33.245Z,11.30
2023-02-22T15:26:02.755Z,11.20
2023-02-22T15:28:32.130Z,11.20
2023-02-22T15:31:19.633Z,11.20
2023-02-22T15:33:48.421Z,11.10
2023-02-22T15:36:18.028Z,11.10
2023-02-22T15:38:51.399Z,11.00
2023-02-22T15:41:28.305Z,11.00
2023-02-22T15:44:17.732Z,10.90
2023-02-22T15:46:55.113Z,10.90
2023-02-22T15:49:24.837Z,10.90
2023-02-22T15:52:09.438Z,10.80
2023-02-22T15:54:48.103Z,10.80
2023-02-22T15:57:19.003Z,10.80
2023-02-22T15:59:51.474Z,10.70
2023-02-22T16:02:35.087Z,10.70
2023-02-22T16:05:08.170Z,10.70
2023-02-22T16:07:42.058Z,10.60
2023-02-22T16:10:22.172Z,10.60
2023-02-22T16:12:52.522Z,10.60
2023-02-22T16:15:21.051Z,10.50
2023-02-22T16:18:01.372Z,10.50
2023-02-22T16:20:33.604Z,10.40
2023-02-22T16:23:22.426Z,10.40
2023-02-22T16:26:03.572Z,10.40
2023-02-22T16:28:35.449Z,10.40
2023-02-22T16:31:04.719Z,10.30
2023-02-22T16:33:34.868Z,10.20
2023-02-22T16:36:08.110Z,10.10
2023-02-22T16:38:39.500Z,10.10
2023-02-22T16:41:08.594Z,10.00
2023-02-22T16:43:37.696Z,10.00
2023-02-22T16:46:07.338Z,9.90
2023-02-22T16:48:38.545Z,9.80
2023-02-22T16:51:17.775Z,9.80
2023-02-22T16:53:46.858Z,9.80
2023-02-22T16:56:18.663Z,9.80
2023-02-22T16:58:50.517Z,9.80
2023-02-22T17:01:19.990Z,9.70
2023-02-22T17:03:50.618Z,9.70
2023-02-22T17:06:19.348Z,9.60
2023-02-22T17:08:48.738Z,9.60
2023-02-22T17:11:17.176Z,9.60
2023-02-22T17:13:46.009Z,9.50
2023-02-22T17:16:16.091Z,9.50
2023-02-22T17:18:45.929Z,9.50
2023-02-22T17:21:17.020Z,9.50
2023-02-22T17:23:46.160Z,9.50
2023-02-22T17:26:15.709Z,9.60
2023-02-22T17:28:44.656Z,9.50
2023-02-22T17:31:21.750Z,9.50
2023-02-22T17:33:51.279Z,9.50
2023-02-22T17:36:21.886Z,9.60
2023-02-22T17:38:50.319Z,9.50
2023-02-22T17:41:18.795Z,9.60
2023-02-22T17:43:47.258Z,9.60
2023-02-22T17:46:15.969Z,9.60
2023-02-22T17:48:44.724Z,9.50
2023-02-22T17:51:13.724Z,9.60
2023-02-22T17:53:43.534Z,9.50
2023-02-22T17:56:14.301Z,9.60
2023-02-22T17:58:43.066Z,9.60
2023-02-22T18:01:21.294Z,9.50
2023-02-22T18:03:50.266Z,9.60
2023-02-22T18:06:22.632Z,9.60
2023-02-22T18:08:56.552Z,9.60
2023-02-22T18:11:26.737Z,9.60
2023-02-22T18:13:56.149Z,9.60
2023-02-22T18:16:26.599Z,9.50
2023-02-22T18:18:56.259Z,9.50
2023-02-22T18:21:26.706Z,9.50
2023-02-22T18:23:58.160Z,9.50
2023-02-22T18:26:27.011Z,9.50
2023-02-22T18:28:55.696Z,9.50
2023-02-22T18:31:24.780Z,9.60
2023-02-22T18:33:54.366Z,9.50
2023-02-22T18:36:23.750Z,9.50
2023-02-22T18:38:53.660Z,9.50
2023-02-22T18:41:26.340Z,9.50
2023-02-22T18:43:58.883Z,9.50
2023-02-22T18:46:29.900Z,9.40
2023-02-22T18:48:59.409Z,9.50
2023-02-22T18:51:28.214Z,9.50
2023-02-22T18:54:00.256Z,9.50
2023-02-22T18:56:31.192Z,9.50
2023-02-22T18:59:01.307Z,9.50
2023-02-22T19:01:31.523Z,9.50
2023-02-22T19:04:01.752Z,9.50
2023-02-22T19:06:30.253Z,9.50
2023-02-22T19:09:01.207Z,9.40
2023-02-22T19:11:31.177Z,9.40
2023-02-22T19:13:59.653Z,9.40
2023-02-22T19:16:28.522Z,9.40
2023-02-22T19:18:58.451Z,9.50
2023-02-22T19:21:29.299Z,9.40
2023-02-22T19:24:01.988Z,9.40
2023-02-22T19:26:32.046Z,9.30
2023-02-22T19:29:06.005Z,9.40
2023-02-22T19:31:35.283Z,9.40
2023-02-22T19:34:05.627Z,9.40
2023-02-22T19:36:34.228Z,9.40
2023-02-22T19:39:02.713Z,9.30
2023-02-22T19:41:32.778Z,9.40
2023-02-22T19:44:02.923Z,9.40
2023-02-22T19:46:31.626Z,9.40
2023-02-22T19:49:00.195Z,9.30
2023-02-22T19:51:30.378Z,9.40
2023-02-22T19:54:00.411Z,9.40
2023-02-22T19:56:30.854Z,9.40
2023-02-22T19:59:02.493Z,9.40
2023-02-22T20:01:33.295Z,9.40
2023-02-22T20:04:03.628Z,9.30
2023-02-22T20:06:34.915Z,9.30
2023-02-22T20:09:04.508Z,9.30
2023-02-22T20:11:32.993Z,9.30
2023-02-22T20:14:05.667Z,9.30
2023-02-22T20:16:34.940Z,9.20
2023-02-22T20:19:03.936Z,9.20
2023-02-22T20:21:33.981Z,9.10
2023-02-22T20:24:04.312Z,9.10
2023-02-22T20:26:34.911Z,9.10
2023-02-22T20:29:05.970Z,9.10
2023-02-22T20:31:34.695Z,9.10
2023-02-22T20:34:06.118Z,9.10
2023-02-22T20:36:36.155Z,9.10
2023-02-22T20:39:13.022Z,9.00
2023-02-22T20:41:43.229Z,9.00
2023-02-22T20:44:14.875Z,9.00
2023-02-22T20:46:44.313Z,9.00
2023-02-22T20:49:14.885Z,9.00
2023-02-22T20:51:44.664Z,9.00
2023-02-22T20:54:13.555Z,9.00
2023-02-22T20:56:45.116Z,9.00
2023-02-22T20:59:17.000Z,9.00
2023-02-22T21:01:47.379Z,9.00
2023-02-22T21:04:15.881Z,8.90
2023-02-22T21:06:44.553Z,8.90
2023-02-22T21:09:14.758Z,8.90
2023-02-22T21:11:43.666Z,8.90
2023-02-22T21:14:18.444Z,8.90
2023-02-22T21:16:49.389Z,8.90
2023-02-22T21:19:28.133Z,9.00
2023-02-22T21:21:58.286Z,8.80
2023-02-22T21:24:28.361Z,8.80
2023-02-22T21:26:58.497Z,8.80
2023-02-22T21:29:28.812Z,8.80
2023-02-22T21:31:57.437Z,8.80
2023-02-22T21:34:26.204Z,8.80
2023-02-22T21:36:54.803Z,8.80
2023-02-22T21:39:28.142Z,8.90
2023-02-22T21:42:00.070Z,8.80
2023-02-22T21:44:30.704Z,8.80
2023-02-22T21:46:59.276Z,8.80
2023-02-22T21:49:28.807Z,8.80
2023-02-22T21:51:57.549Z,8.80
2023-02-22T21:54:27.902Z,8.80
2023-02-22T21:56:56.361Z,8.80
2023-02-22T21:59:25.169Z,8.80
2023-02-22T22:01:56.661Z,8.80
2023-02-22T22:04:27.764Z,8.80
2023-02-22T22:06:57.815Z,8.70
2023-02-22T22:09:32.573Z,8.80
2023-02-22T22:12:04.857Z,8.70
2023-02-22T22:14:34.537Z,8.80
2023-02-22T22:17:07.814Z,8.80
2023-02-22T22:19:40.342Z,8.80
2023-02-22T22:22:09.320Z,8.80
2023-02-22T22:24:41.253Z,8.80
2023-02-22T22:27:12.227Z,8.80
2023-02-22T22:29:40.726Z,8.80
2023-02-22T22:32:10.839Z,8.80
2023-02-22T22:34:39.453Z,8.80
2023-02-22T22:37:08.643Z,8.80
2023-02-22T22:39:38.421Z,8.80
2023-02-22T22:42:08.906Z,8.80
2023-02-22T22:44:41.903Z,8.80
2023-02-22T22:47:13.626Z,8.80
2023-02-22T22:49:42.536Z,8.80
2023-02-22T22:52:13.806Z,8.70
2023-02-22T22:54:43.218Z,8.70
2023-02-22T22:57:12.630Z,8.70
2023-02-22T22:59:41.113Z,8.70
2023-02-22T23:02:11.357Z,8.70
2023-02-22T23:04:39.861Z,8.70
2023-02-22T23:07:08.461Z,8.60
2023-02-22T23:09:38.676Z,8.60
2023-02-22T23:12:09.624Z,8.60
2023-02-22T23:14:40.048Z,8.60
2023-02-22T23:17:14.894Z,8.60
2023-02-22T23:19:46.054Z,8.60
2023-02-22T23:22:15.126Z,8.60
2023-02-22T23:24:44.966Z,8.60
2023-02-22T23:27:13.640Z,8.60
2023-02-22T23:29:46.415Z,8.60
2023-02-22T23:32:15.172Z,8.60
2023-02-22T23:34:49.505Z,8.60
2023-02-22T23:37:20.606Z,8.60
2023-02-22T23:39:50.817Z,8.60
2023-02-22T23:42:19.398Z,8.60
2023-02-22T23:44:49.162Z,8.60
2023-02-22T23:47:17.556Z,8.60
2023-02-22T23:49:49.519Z,8.60
2023-02-22T23:52:23.831Z,8.60
2023-02-22T23:54:53.780Z,8.60
2023-02-22T23:57:22.358Z,8.60
2023-02-22T23:59:51.324Z,8.60
